createdAt,value
2023-05-05T00:00:13.758Z,15.8387
2023-05-05T00:01:14.809Z,15.7773
2023-05-05T00:02:15.424Z,15.7631
2023-05-05T00:03:16.730Z,15.7147
2023-05-05T00:04:18.039Z,15.7429
2023-05-05T00:05:18.293Z,15.6947
2023-05-05T00:06:18.840Z,15.7444
2023-05-05T00:07:19.366Z,15.7615
2023-05-05T00:08:19.678Z,15.7231
2023-05-05T00:09:20.233Z,15.7194
2023-05-05T00:10:21.108Z,15.6995
2023-05-05T00:11:22.177Z,15.6732
2023-05-05T00:12:22.752Z,15.6454
2023-05-05T00:13:23.906Z,15.6040
2023-05-05T00:14:24.702Z,15.5473
2023-05-05T00:15:25.265Z,15.4948
2023-05-05T00:16:26.065Z,15.4122
2023-05-05T00:17:26.985Z,15.3525
2023-05-05T00:18:28.135Z,15.3236
2023-05-05T00:19:28.868Z,15.2194
2023-05-05T00:20:30.070Z,15.1826
2023-05-05T00:21:30.842Z,15.1413
2023-05-05T00:22:31.664Z,15.1019
2023-05-05T00:23:32.228Z,15.0591
2023-05-05T00:24:32.881Z,15.0115
2023-05-05T00:25:33.534Z,14.9482
2023-05-05T00:26:34.265Z,14.9110
2023-05-05T00:27:35.079Z,14.8848
2023-05-05T00:28:35.635Z,14.8409
2023-05-05T00:29:36.427Z,14.7789
2023-05-05T00:30:37.330Z,14.7701
2023-05-05T00:31:38.190Z,14.8053
2023-05-05T00:32:39.155Z,14.8291
2023-05-05T00:33:39.786Z,14.7971
2023-05-05T00:34:40.648Z,14.7909
2023-05-05T00:35:41.558Z,14.7883
2023-05-05T00:36:43.289Z,14.7882
2023-05-05T00:37:43.320Z,14.7897
2023-05-05T00:38:44.078Z,14.7786
2023-05-05T00:39:45.009Z,14.8125
2023-05-05T00:40:45.929Z,14.8492
2023-05-05T00:41:46.637Z,14.8622
2023-05-05T00:42:47.538Z,14.8864
2023-05-05T00:43:48.382Z,14.9120
2023-05-05T00:44:48.970Z,14.9015
2023-05-05T00:45:49.610Z,14.9100
2023-05-05T00:46:50.643Z,14.9091
2023-05-05T00:47:51.825Z,14.9123
2023-05-05T00:48:53.918Z,14.9151
2023-05-05T00:49:53.577Z,14.8905
2023-05-05T00:50:54.483Z,14.8684
2023-05-05T00:51:55.331Z,14.8285
2023-05-05T00:52:56.016Z,14.7996
2023-05-05T00:53:56.963Z,14.7679
2023-05-05T00:54:57.617Z,14.7398
2023-05-05T00:55:58.344Z,14.6921
2023-05-05T00:56:59.269Z,14.6667
2023-05-05T00:57:59.882Z,14.6679
2023-05-05T00:59:01.470Z,14.6617
2023-05-05T01:00:01.207Z,14.6565
2023-05-05T01:01:01.929Z,14.6356
2023-05-05T01:02:02.796Z,14.6093
2023-05-05T01:04:22.425Z,14.5638
2023-05-05T01:05:23.413Z,14.5469
2023-05-05T01:11:30.482Z,14.8368
2023-05-05T01:12:31.813Z,14.9506
2023-05-05T01:18:37.687Z,15.2185
2023-05-05T01:19:38.273Z,15.2316
2023-05-05T01:20:39.394Z,15.2661
2023-05-05T01:21:39.720Z,15.2677
2023-05-05T01:22:40.871Z,15.2510
2023-05-05T01:23:41.694Z,15.2390
2023-05-05T01:24:43.325Z,15.1967
2023-05-05T01:25:43.449Z,15.1581
2023-05-05T01:26:44.260Z,15.1337
2023-05-05T01:27:45.045Z,15.0900
2023-05-05T01:30:47.184Z,14.9179
2023-05-05T01:31:48.303Z,14.8222
2023-05-05T01:36:51.868Z,14.5786
2023-05-05T01:37:51.911Z,14.5574
2023-05-05T01:38:51.981Z,14.4929
2023-05-05T01:39:52.430Z,14.4686
2023-05-05T01:40:53.636Z,14.4189
2023-05-05T01:41:55.793Z,14.3996
2023-05-05T01:42:58.013Z,14.3722
2023-05-05T01:44:00.275Z,14.3368
2023-05-05T01:45:02.319Z,14.2956
2023-05-05T01:46:03.449Z,14.2427
2023-05-05T01:47:04.491Z,14.1899
2023-05-05T01:54:15.317Z,14.0874
2023-05-05T02:00:19.223Z,14.0368
2023-05-05T02:01:19.766Z,13.9855
2023-05-05T02:03:20.976Z,13.9708
2023-05-05T02:04:22.030Z,13.9518
2023-05-05T02:05:22.887Z,13.9416
2023-05-05T02:06:22.973Z,13.9605
2023-05-05T02:07:24.647Z,13.9758
2023-05-05T02:08:24.344Z,13.9859
2023-05-05T02:09:25.332Z,14.0228
2023-05-05T02:10:26.071Z,14.0579
2023-05-05T02:11:26.115Z,14.0786
2023-05-05T02:12:29.661Z,14.1332
2023-05-05T02:13:26.841Z,14.2487
2023-05-05T02:14:27.137Z,14.2610
2023-05-05T02:15:27.952Z,14.2944
2023-05-05T02:16:29.119Z,14.3736
2023-05-05T02:17:30.086Z,14.3878
2023-05-05T02:18:30.849Z,14.4107
2023-05-05T02:19:31.681Z,14.4158
2023-05-05T02:20:31.770Z,14.4432
2023-05-05T02:21:32.693Z,14.4613
2023-05-05T02:22:33.552Z,14.4850
2023-05-05T02:23:34.311Z,14.4691
2023-05-05T02:24:35.104Z,14.5163
2023-05-05T02:25:36.399Z,14.6528
2023-05-05T02:26:37.280Z,14.7277
2023-05-05T02:27:38.256Z,14.7612
2023-05-05T02:28:38.938Z,14.7890
2023-05-05T02:29:40.241Z,14.7812
2023-05-05T02:30:40.637Z,14.7922
2023-05-05T02:31:41.670Z,14.8062
2023-05-05T02:32:42.927Z,14.8072
2023-05-05T02:33:43.828Z,14.7989
2023-05-05T02:34:44.540Z,14.7847
2023-05-05T02:35:45.493Z,14.7847
2023-05-05T02:36:46.260Z,14.7730
2023-05-05T02:37:47.122Z,14.7387
2023-05-05T02:38:48.120Z,14.7163
2023-05-05T02:39:48.751Z,14.6728
2023-05-05T02:42:50.067Z,14.5519
2023-05-05T02:44:50.394Z,14.4297
2023-05-05T02:45:51.380Z,14.3738
2023-05-05T02:46:52.534Z,14.3284
2023-05-05T02:47:53.717Z,14.2963
2023-05-05T02:48:54.204Z,14.2487
2023-05-05T02:49:55.409Z,14.2071
2023-05-05T02:50:55.371Z,14.1557
2023-05-05T02:51:56.000Z,14.1289
2023-05-05T02:52:56.690Z,14.1227
2023-05-05T02:53:57.554Z,14.0844
2023-05-05T02:54:57.921Z,14.0282
2023-05-05T02:55:58.365Z,13.9988
2023-05-05T02:56:59.541Z,14.0036
2023-05-05T02:58:00.426Z,13.9924
2023-05-05T02:59:01.268Z,14.0015
2023-05-05T03:00:01.321Z,14.0170
2023-05-05T03:01:01.985Z,14.0084
2023-05-05T03:02:02.217Z,14.0132
2023-05-05T03:03:03.594Z,14.0101
2023-05-05T03:04:03.775Z,14.0064
2023-05-05T03:05:04.643Z,14.0019
2023-05-05T03:06:05.548Z,13.9865
2023-05-05T03:07:06.455Z,13.9702
2023-05-05T03:08:07.354Z,13.9453
2023-05-05T03:09:08.227Z,13.9314
2023-05-05T03:10:09.444Z,13.9064
2023-05-05T03:11:09.268Z,13.9081
2023-05-05T03:12:10.065Z,13.9000
2023-05-05T03:13:11.368Z,13.8835
2023-05-05T03:14:12.154Z,13.8727
2023-05-05T03:15:13.087Z,13.8662
2023-05-05T03:16:14.132Z,13.8327
2023-05-05T03:17:15.057Z,13.8306
2023-05-05T03:18:16.398Z,13.8251
2023-05-05T03:19:17.092Z,13.8110
2023-05-05T03:20:17.404Z,13.8073
2023-05-05T03:21:18.445Z,13.8089
2023-05-05T03:22:19.158Z,13.8116
2023-05-05T03:23:20.355Z,13.8272
2023-05-05T03:24:20.224Z,13.8296
2023-05-05T03:25:20.991Z,13.8358
2023-05-05T03:26:21.659Z,13.8500
2023-05-05T03:27:22.544Z,13.8812
2023-05-05T03:28:23.732Z,13.8965
2023-05-05T03:29:23.950Z,13.9152
2023-05-05T03:30:24.001Z,13.9184
2023-05-05T03:31:24.489Z,13.9244
2023-05-05T03:34:17.766Z,13.9365
2023-05-05T03:35:18.643Z,13.9312
2023-05-05T03:36:19.471Z,13.9372
2023-05-05T03:37:20.350Z,13.9580
2023-05-05T03:38:21.217Z,13.9552
2023-05-05T03:39:21.904Z,13.9724
2023-05-05T03:40:29.618Z,13.9833
2023-05-05T03:41:23.516Z,14.0017
2023-05-05T03:42:24.155Z,14.0131
2023-05-05T03:43:24.974Z,14.0138
2023-05-05T03:44:25.709Z,14.0216
2023-05-05T03:45:26.659Z,14.0188
2023-05-05T03:46:27.674Z,14.0222
2023-05-05T03:47:29.623Z,14.0241
2023-05-05T03:49:30.320Z,14.0285
2023-05-05T03:50:30.466Z,14.0324
2023-05-05T03:51:31.023Z,14.0143
2023-05-05T03:52:31.553Z,14.0213
2023-05-05T03:53:32.377Z,14.0304
2023-05-05T03:54:33.671Z,14.0152
2023-05-05T03:55:34.699Z,14.0070
2023-05-05T03:56:35.978Z,13.9916
2023-05-05T03:57:36.757Z,13.9657
2023-05-05T03:58:37.256Z,13.9574
2023-05-05T03:59:38.267Z,13.9346
2023-05-05T04:00:39.603Z,13.9193
2023-05-05T04:01:40.527Z,13.8893
2023-05-05T04:02:41.346Z,13.8794
2023-05-05T04:03:43.329Z,13.8563
2023-05-05T04:04:44.702Z,13.8328
2023-05-05T04:05:44.846Z,13.8160
2023-05-05T04:06:46.813Z,13.7953
2023-05-05T04:07:47.890Z,13.7692
2023-05-05T04:08:48.718Z,13.7314
2023-05-05T04:09:49.600Z,13.7160
2023-05-05T04:10:49.645Z,13.6990
2023-05-05T04:11:49.859Z,13.6781
2023-05-05T04:12:51.031Z,13.6633
2023-05-05T04:13:52.053Z,13.6402
2023-05-05T04:14:52.689Z,13.6021
2023-05-05T04:16:53.321Z,13.5488
2023-05-05T04:17:53.565Z,13.5419
2023-05-05T04:18:54.538Z,13.5180
2023-05-05T04:19:55.374Z,13.4618
2023-05-05T04:20:55.408Z,13.4216
2023-05-05T04:21:55.901Z,13.4352
2023-05-05T04:22:58.248Z,13.4248
2023-05-05T04:23:59.144Z,13.3981
2023-05-05T04:25:00.301Z,13.3645
2023-05-05T04:26:01.135Z,13.3669
2023-05-05T04:27:02.055Z,13.3407
2023-05-05T04:29:02.815Z,13.3076
2023-05-05T04:30:03.854Z,13.3123
2023-05-05T04:32:04.459Z,13.3004
2023-05-05T04:33:04.612Z,13.2919
2023-05-05T04:34:05.408Z,13.2875
2023-05-05T04:35:06.431Z,13.2670
2023-05-05T04:36:07.472Z,13.3316
2023-05-05T04:37:08.304Z,13.3070
2023-05-05T04:38:09.365Z,13.3371
2023-05-05T04:39:10.522Z,13.3771
2023-05-05T04:40:11.352Z,13.3783
2023-05-05T04:41:12.338Z,13.4327
2023-05-05T04:42:12.533Z,13.4591
2023-05-05T04:43:13.500Z,13.4835
2023-05-05T04:44:14.533Z,13.5407
2023-05-05T04:45:15.295Z,13.5609
2023-05-05T04:46:16.326Z,13.5734
2023-05-05T04:47:16.302Z,13.5878
2023-05-05T04:48:16.343Z,13.5846
2023-05-05T04:49:17.514Z,13.5828
2023-05-05T04:50:17.501Z,13.5661
2023-05-05T04:51:18.456Z,13.5284
2023-05-05T04:52:19.329Z,13.5167
2023-05-05T04:53:20.187Z,13.4712
2023-05-05T04:54:21.201Z,13.4779
2023-05-05T04:55:22.003Z,13.4808
2023-05-05T04:56:22.979Z,13.4712
2023-05-05T04:57:24.016Z,13.4578
2023-05-05T04:58:24.893Z,13.4477
2023-05-05T04:59:25.887Z,13.4266
2023-05-05T05:00:26.668Z,13.3992
2023-05-05T05:01:27.860Z,13.3927
2023-05-05T05:02:28.286Z,13.3827
2023-05-05T05:03:28.489Z,13.3893
2023-05-05T05:04:28.811Z,13.4148
2023-05-05T05:05:29.789Z,13.3751
2023-05-05T05:06:30.777Z,13.3751
2023-05-05T05:07:30.818Z,13.3910
2023-05-05T05:08:31.680Z,13.4210
2023-05-05T05:09:32.633Z,13.4054
2023-05-05T05:10:33.600Z,13.3888
2023-05-05T05:11:34.967Z,13.3799
2023-05-05T05:12:35.115Z,13.3839
2023-05-05T05:13:35.407Z,13.4092
2023-05-05T05:14:36.423Z,13.4100
2023-05-05T05:15:36.812Z,13.4073
2023-05-05T05:16:37.094Z,13.4207
2023-05-05T05:17:38.197Z,13.4185
2023-05-05T05:18:39.662Z,13.3987
2023-05-05T05:19:40.079Z,13.3895
2023-05-05T05:20:40.756Z,13.3690
2023-05-05T05:21:40.891Z,13.3785
2023-05-05T05:22:41.519Z,13.3602
2023-05-05T05:23:42.080Z,13.3784
2023-05-05T05:24:43.231Z,13.3901
2023-05-05T05:25:43.315Z,13.4043
2023-05-05T05:26:44.607Z,13.4358
2023-05-05T05:27:50.172Z,13.4489
2023-05-05T05:28:45.870Z,13.4790
2023-05-05T05:29:46.748Z,13.4969
2023-05-05T05:30:47.486Z,13.5229
2023-05-05T05:31:47.478Z,13.5365
2023-05-05T05:32:49.102Z,13.5646
2023-05-05T05:33:49.085Z,13.5840
2023-05-05T05:34:49.925Z,13.6137
2023-05-05T05:35:50.065Z,13.6415
2023-05-05T05:36:51.069Z,13.6576
2023-05-05T05:37:51.107Z,13.6829
2023-05-05T05:38:52.396Z,13.7109
2023-05-05T05:39:53.443Z,13.7187
2023-05-05T05:40:53.976Z,13.7306
2023-05-05T05:41:54.886Z,13.7364
2023-05-05T05:42:56.265Z,13.7574
2023-05-05T05:43:57.318Z,13.7701
2023-05-05T05:44:58.147Z,13.7849
2023-05-05T05:45:58.317Z,13.8187
2023-05-05T05:46:58.909Z,13.8483
2023-05-05T05:48:00.045Z,13.8760
2023-05-05T05:49:00.019Z,13.9088
2023-05-05T05:50:01.229Z,13.9403
2023-05-05T05:51:02.448Z,13.9610
2023-05-05T05:52:02.290Z,13.9755
2023-05-05T05:53:02.952Z,13.9751
2023-05-05T05:54:04.159Z,14.0151
2023-05-05T05:55:05.090Z,14.1055
2023-05-05T05:56:06.301Z,14.1936
2023-05-05T05:57:07.597Z,14.2480
2023-05-05T05:58:08.484Z,14.3108
2023-05-05T05:59:09.537Z,14.3581
2023-05-05T06:00:11.662Z,14.3869
2023-05-05T06:01:12.505Z,14.4304
2023-05-05T06:02:13.885Z,14.4818
2023-05-05T06:03:14.876Z,14.5381
2023-05-05T06:04:15.955Z,14.6040
2023-05-05T06:05:15.887Z,14.6364
2023-05-05T06:06:16.762Z,14.6765
2023-05-05T06:07:17.740Z,14.7177
2023-05-05T06:08:19.070Z,14.7299
2023-05-05T06:09:19.936Z,14.7472
2023-05-05T06:10:28.047Z,14.7747
2023-05-05T06:11:24.873Z,14.7999
2023-05-05T06:12:25.703Z,14.8157
2023-05-05T06:13:25.867Z,14.8421
2023-05-05T06:14:26.516Z,14.8601
2023-05-05T06:15:27.650Z,14.8884
2023-05-05T06:16:29.020Z,14.8792
2023-05-05T06:17:30.046Z,14.9129
2023-05-05T06:18:30.854Z,14.9566
2023-05-05T06:19:31.693Z,15.0062
2023-05-05T06:20:32.681Z,15.0369
2023-05-05T06:21:33.701Z,15.0893
2023-05-05T06:22:34.645Z,15.1389
2023-05-05T06:23:35.629Z,15.1805
2023-05-05T06:24:36.636Z,15.2129
2023-05-05T06:25:37.544Z,15.2477
2023-05-05T06:26:38.547Z,15.3173
2023-05-05T06:27:39.493Z,15.3836
2023-05-05T06:28:40.669Z,15.4135
2023-05-05T06:29:41.798Z,15.4661
2023-05-05T06:30:43.049Z,15.5313
2023-05-05T06:31:44.327Z,15.5962
2023-05-05T06:32:45.480Z,15.6416
2023-05-05T06:33:46.525Z,15.6966
2023-05-05T06:34:46.632Z,15.7451
2023-05-05T06:35:47.824Z,15.7762
2023-05-05T06:36:48.214Z,15.7986
2023-05-05T06:37:50.259Z,15.8128
2023-05-05T06:40:50.534Z,15.8805
2023-05-05T06:41:51.882Z,15.8934
2023-05-05T06:42:53.050Z,15.9254
2023-05-05T06:43:54.549Z,15.9574
2023-05-05T06:44:55.003Z,15.9983
2023-05-05T06:45:56.191Z,16.0402
2023-05-05T06:46:56.219Z,16.0755
2023-05-05T06:47:57.643Z,16.1219
2023-05-05T06:48:57.597Z,16.1717
2023-05-05T06:49:58.717Z,16.1901
2023-05-05T06:50:59.417Z,16.2213
2023-05-05T06:52:00.097Z,16.3409
2023-05-05T06:53:01.109Z,16.4061
2023-05-05T06:54:02.331Z,16.4751
2023-05-05T06:55:02.984Z,16.5636
2023-05-05T06:56:04.124Z,16.5168
2023-05-05T06:57:04.269Z,16.5609
2023-05-05T06:58:05.230Z,16.6009
2023-05-05T06:59:06.426Z,16.6749
2023-05-05T07:00:07.832Z,16.7160
2023-05-05T07:01:08.111Z,16.7287
2023-05-05T07:02:08.184Z,16.6996
2023-05-05T07:03:08.302Z,16.6580
2023-05-05T07:04:08.549Z,16.6235
2023-05-05T07:05:09.648Z,16.5654
2023-05-05T07:06:10.747Z,16.5317
2023-05-05T07:07:12.012Z,16.4900
2023-05-05T07:08:13.085Z,16.5047
2023-05-05T07:09:15.755Z,16.5456
2023-05-05T07:10:15.653Z,16.5435
2023-05-05T07:11:16.422Z,16.5429
2023-05-05T07:12:17.622Z,16.5361
2023-05-05T07:13:19.001Z,16.5543
2023-05-05T07:14:19.041Z,16.5753
2023-05-05T07:15:29.096Z,16.5705
2023-05-05T07:16:24.623Z,16.5708
2023-05-05T07:17:25.864Z,16.5917
2023-05-05T07:18:25.872Z,16.6396
2023-05-05T07:19:26.770Z,16.6527
2023-05-05T07:20:27.922Z,16.6867
2023-05-05T07:21:28.928Z,16.7370
2023-05-05T07:22:30.116Z,16.7940
2023-05-05T07:23:31.265Z,16.8402
2023-05-05T07:24:32.261Z,16.8634
2023-05-05T07:25:33.399Z,16.9109
2023-05-05T07:26:34.711Z,16.9676
2023-05-05T07:27:35.811Z,16.9671
2023-05-05T07:28:36.930Z,16.9753
2023-05-05T07:29:37.833Z,16.9961
2023-05-05T07:30:38.260Z,17.0276
2023-05-05T07:31:39.547Z,17.0538
2023-05-05T07:32:39.614Z,17.0683
2023-05-05T07:33:40.761Z,17.0912
2023-05-05T07:34:41.626Z,17.1126
2023-05-05T07:35:42.597Z,17.1143
2023-05-05T07:36:43.756Z,17.1283
2023-05-05T07:37:44.718Z,17.1275
2023-05-05T07:38:44.965Z,17.1133
2023-05-05T07:39:45.939Z,17.1105
2023-05-05T07:40:46.649Z,17.0877
2023-05-05T07:41:47.811Z,17.1137
2023-05-05T07:42:48.826Z,17.1507
2023-05-05T07:43:49.951Z,17.1800
2023-05-05T07:44:50.957Z,17.2258
2023-05-05T07:45:52.133Z,17.2751
2023-05-05T07:46:52.137Z,17.2810
2023-05-05T07:47:53.249Z,17.2798
2023-05-05T07:49:54.211Z,17.2863
2023-05-05T07:50:54.619Z,17.3065
2023-05-05T07:51:55.873Z,17.3021
2023-05-05T07:53:02.525Z,17.2866
2023-05-05T07:53:56.873Z,17.2842
2023-05-05T07:54:57.074Z,17.3152
2023-05-05T07:55:58.079Z,17.3585
2023-05-05T07:56:59.023Z,17.3410
2023-05-05T07:58:00.200Z,17.3179
2023-05-05T07:59:01.299Z,17.2933
2023-05-05T08:00:02.151Z,17.2976
2023-05-05T08:01:02.226Z,17.3103
2023-05-05T08:02:03.138Z,17.3087
2023-05-05T08:03:03.878Z,17.3318
2023-05-05T08:04:04.938Z,17.3668
2023-05-05T08:05:05.060Z,17.3862
2023-05-05T08:06:04.990Z,17.3976
2023-05-05T08:07:06.102Z,17.4196
2023-05-05T08:08:06.706Z,17.4606
2023-05-05T08:09:07.624Z,17.5142
2023-05-05T08:10:08.916Z,17.5805
2023-05-05T08:11:10.037Z,17.6178
2023-05-05T08:12:10.763Z,17.5924
2023-05-05T08:13:11.071Z,17.5765
2023-05-05T08:14:12.289Z,17.5790
2023-05-05T08:15:12.588Z,17.6234
2023-05-05T08:16:12.708Z,17.6835
2023-05-05T08:17:13.845Z,17.6841
2023-05-05T08:18:14.017Z,17.6846
2023-05-05T08:19:27.566Z,17.6754
2023-05-05T08:20:14.638Z,17.6737
2023-05-05T08:21:14.744Z,17.6668
2023-05-05T08:22:15.881Z,17.6610
2023-05-05T08:23:16.010Z,17.6638
2023-05-05T08:24:17.403Z,17.6440
2023-05-05T08:25:18.667Z,17.6740
2023-05-05T08:26:18.845Z,17.6992
2023-05-05T08:27:19.812Z,17.7190
2023-05-05T08:28:19.895Z,17.7389
2023-05-05T08:29:20.913Z,17.7625
2023-05-05T08:30:20.963Z,17.8407
2023-05-05T08:31:22.211Z,17.9348
2023-05-05T08:34:23.877Z,17.9738
2023-05-05T08:35:24.301Z,18.0167
2023-05-05T08:36:25.543Z,18.0888
2023-05-05T08:37:26.558Z,18.1513
2023-05-05T08:38:27.720Z,18.1901
2023-05-05T08:39:27.998Z,18.1825
2023-05-05T08:40:28.584Z,18.1901
2023-05-05T08:41:29.640Z,18.2401
2023-05-05T08:42:36.937Z,18.2766
2023-05-05T08:43:31.931Z,18.3489
2023-05-05T08:44:33.150Z,18.4074
2023-05-05T08:45:34.059Z,18.4573
2023-05-05T08:46:35.265Z,18.5243
2023-05-05T08:47:35.496Z,18.5698
2023-05-05T08:48:35.734Z,18.6348
2023-05-05T08:50:36.732Z,18.7045
2023-05-05T08:51:37.503Z,18.7502
2023-05-05T08:52:39.080Z,18.7768
2023-05-05T08:53:40.164Z,18.7946
2023-05-05T08:54:40.221Z,18.7979
2023-05-05T08:55:40.695Z,18.8170
2023-05-05T08:56:41.984Z,18.8543
2023-05-05T08:57:43.406Z,18.8638
2023-05-05T08:58:44.386Z,18.9111
2023-05-05T08:59:44.453Z,18.9215
2023-05-05T09:00:45.735Z,18.9165
2023-05-05T09:01:45.990Z,18.9524
2023-05-05T09:02:46.242Z,18.9348
2023-05-05T09:03:47.266Z,18.9043
2023-05-05T09:04:48.556Z,18.9267
2023-05-05T09:05:49.049Z,18.8394
2023-05-05T09:06:49.131Z,18.8399
2023-05-05T09:07:50.384Z,18.8326
2023-05-05T09:08:51.676Z,18.8594
2023-05-05T09:09:51.693Z,18.8587
2023-05-05T09:10:51.997Z,18.8014
2023-05-05T09:11:53.162Z,18.8778
2023-05-05T09:12:53.251Z,18.9029
2023-05-05T09:13:53.462Z,18.9268
2023-05-05T09:14:53.402Z,18.9421
2023-05-05T09:15:53.538Z,18.9907
2023-05-05T09:16:53.547Z,19.0369
2023-05-05T09:17:53.767Z,19.0097
2023-05-05T09:18:54.982Z,19.0291
2023-05-05T09:19:55.046Z,19.0966
2023-05-05T09:20:58.143Z,19.0750
2023-05-05T09:21:56.743Z,19.0288
2023-05-05T09:22:57.976Z,19.0728
2023-05-05T09:24:04.897Z,19.0378
2023-05-05T09:24:59.700Z,19.0253
2023-05-05T09:25:59.917Z,19.0492
2023-05-05T09:27:01.356Z,19.1355
2023-05-05T09:28:01.327Z,19.1375
2023-05-05T09:29:01.418Z,19.1943
2023-05-05T09:30:02.653Z,19.2119
2023-05-05T09:31:02.736Z,19.2484
2023-05-05T09:32:02.828Z,19.2772
2023-05-05T09:33:03.559Z,19.2990
2023-05-05T09:34:04.720Z,19.3254
2023-05-05T09:35:04.730Z,19.3849
2023-05-05T09:36:04.877Z,19.4512
2023-05-05T09:37:06.370Z,19.4949
2023-05-05T09:38:07.017Z,19.4969
2023-05-05T09:39:07.280Z,19.5279
2023-05-05T09:40:07.389Z,19.5726
2023-05-05T09:41:08.637Z,19.5703
2023-05-05T09:42:09.910Z,19.5777
2023-05-05T09:43:10.073Z,19.5343
2023-05-05T09:44:10.164Z,19.5129
2023-05-05T09:45:11.342Z,19.5627
2023-05-05T09:46:11.545Z,19.6402
2023-05-05T09:47:28.989Z,19.6610
2023-05-05T09:48:17.325Z,19.6978
2023-05-05T09:49:17.453Z,19.7946
2023-05-05T09:50:17.757Z,19.9174
2023-05-05T09:51:17.843Z,19.9553
2023-05-05T09:52:17.863Z,20.0639
2023-05-05T09:53:18.177Z,20.1331
2023-05-05T09:54:18.278Z,20.1614
2023-05-05T09:55:18.650Z,20.1695
2023-05-05T09:56:19.119Z,20.1768
2023-05-05T09:57:20.404Z,20.2202
2023-05-05T09:58:20.703Z,20.2680
2023-05-05T09:59:20.629Z,20.3013
2023-05-05T10:00:21.293Z,20.3672
2023-05-05T10:01:21.266Z,20.3695
2023-05-05T10:02:21.598Z,20.4206
2023-05-05T10:03:21.722Z,20.5072
2023-05-05T10:04:21.879Z,20.5274
2023-05-05T10:05:22.110Z,20.6363
2023-05-05T10:06:22.396Z,20.7238
2023-05-05T10:07:23.685Z,20.7135
2023-05-05T10:08:23.712Z,20.6889
2023-05-05T10:09:25.323Z,20.6700
2023-05-05T10:10:26.920Z,20.7003
2023-05-05T10:11:25.865Z,20.7731
2023-05-05T10:12:27.021Z,20.7612
2023-05-05T10:13:27.361Z,20.7864
2023-05-05T10:14:28.612Z,20.8357
2023-05-05T10:15:28.899Z,20.8353
2023-05-05T10:16:29.712Z,20.9545
2023-05-05T10:17:30.282Z,20.8871
2023-05-05T10:18:30.947Z,20.9074
2023-05-05T10:19:30.873Z,20.8640
2023-05-05T10:20:31.087Z,20.8481
2023-05-05T10:21:31.140Z,20.8289
2023-05-05T10:22:31.325Z,20.8339
2023-05-05T10:23:31.464Z,20.7512
2023-05-05T10:24:31.746Z,20.7322
2023-05-05T10:27:33.220Z,20.8682
2023-05-05T10:28:33.347Z,20.9475
2023-05-05T10:29:34.827Z,21.0454
2023-05-05T10:30:35.417Z,21.1996
2023-05-05T10:31:35.551Z,21.3033
2023-05-05T10:33:42.679Z,21.1945
2023-05-05T10:34:43.809Z,21.2888
2023-05-05T10:35:45.028Z,21.2958
2023-05-05T10:36:45.333Z,21.2358
2023-05-05T10:37:45.242Z,21.2628
2023-05-05T10:38:45.304Z,21.3522
2023-05-05T10:39:46.760Z,21.4257
2023-05-05T10:40:47.625Z,21.4019
2023-05-05T10:41:48.004Z,21.3631
2023-05-05T10:42:48.004Z,21.3886
2023-05-05T10:43:48.171Z,21.3475
2023-05-05T10:44:48.286Z,21.3287
2023-05-05T10:45:49.115Z,21.3221
2023-05-05T10:46:49.663Z,21.2782
2023-05-05T10:47:50.118Z,21.1829
2023-05-05T10:48:50.744Z,21.1575
2023-05-05T10:49:50.689Z,21.0081
2023-05-05T10:50:50.823Z,21.1016
2023-05-05T10:51:51.407Z,21.0692
2023-05-05T10:52:51.683Z,21.0783
2023-05-05T10:53:52.978Z,21.1119
2023-05-05T10:54:53.418Z,21.1618
2023-05-05T10:55:53.386Z,21.2525
2023-05-05T10:56:53.820Z,21.3004
2023-05-05T10:57:53.831Z,21.3451
2023-05-05T10:59:00.141Z,21.3672
2023-05-05T10:59:55.230Z,21.3289
2023-05-05T11:00:55.503Z,21.3132
2023-05-05T11:01:56.291Z,21.2765
2023-05-05T11:02:57.236Z,21.4323
2023-05-05T11:03:57.949Z,21.5519
2023-05-05T11:04:58.233Z,21.6300
2023-05-05T11:05:58.380Z,21.6423
2023-05-05T11:06:59.649Z,21.6838
2023-05-05T11:08:00.709Z,21.7819
2023-05-05T11:09:00.821Z,21.8124
2023-05-05T11:10:01.002Z,21.8242
2023-05-05T11:11:01.860Z,21.8741
2023-05-05T11:12:02.315Z,21.9808
2023-05-05T11:13:02.750Z,22.0018
2023-05-05T11:14:03.757Z,22.0208
2023-05-05T11:15:03.919Z,22.0841
2023-05-05T11:16:04.097Z,22.0697
2023-05-05T11:17:04.681Z,22.0472
2023-05-05T11:18:07.376Z,22.1214
2023-05-05T11:19:05.063Z,22.1379
2023-05-05T11:20:05.121Z,22.2407
2023-05-05T11:21:05.481Z,22.0930
2023-05-05T11:22:05.689Z,22.1835
2023-05-05T11:23:05.886Z,22.2849
2023-05-05T11:24:06.056Z,22.4731
2023-05-05T11:25:07.249Z,22.5355
2023-05-05T11:26:07.502Z,22.6026
2023-05-05T11:27:08.921Z,22.6779
2023-05-05T11:28:09.107Z,22.6632
2023-05-05T11:29:09.272Z,22.6406
2023-05-05T11:30:10.520Z,22.6724
2023-05-05T11:31:10.709Z,22.8540
2023-05-05T11:32:11.010Z,22.9479
2023-05-05T11:33:11.141Z,22.7877
2023-05-05T11:34:12.378Z,22.9559
2023-05-05T11:35:12.497Z,23.0331
2023-05-05T11:36:13.950Z,23.3402
2023-05-05T11:37:15.285Z,23.4021
2023-05-05T11:38:15.478Z,23.5001
2023-05-05T11:39:16.763Z,23.5212
2023-05-05T11:40:17.019Z,23.4640
2023-05-05T11:41:17.071Z,23.3933
2023-05-05T11:42:18.305Z,23.4762
2023-05-05T11:43:18.530Z,23.5553
2023-05-05T11:44:18.570Z,23.6253
2023-05-05T11:45:18.693Z,23.7818
2023-05-05T11:46:19.104Z,23.8915
2023-05-05T11:47:19.596Z,24.0958
2023-05-05T11:48:20.080Z,24.1079
2023-05-05T11:49:20.637Z,24.2010
2023-05-05T11:50:20.590Z,24.2718
2023-05-05T11:51:20.714Z,24.1582
2023-05-05T11:52:20.765Z,23.9513
2023-05-05T11:53:21.050Z,23.9312
2023-05-05T11:54:21.285Z,23.8573
2023-05-05T11:55:21.369Z,23.8862
2023-05-05T11:56:22.810Z,23.7515
2023-05-05T11:57:22.895Z,23.8834
2023-05-05T11:58:23.136Z,23.8174
2023-05-05T11:59:24.423Z,23.4697
2023-05-05T12:00:24.621Z,23.3856
2023-05-05T12:01:25.915Z,23.2499
2023-05-05T12:02:26.332Z,23.2432
2023-05-05T12:03:28.138Z,22.9315
2023-05-05T12:04:28.533Z,23.0116
2023-05-05T12:05:28.916Z,23.0585
2023-05-05T12:06:29.233Z,23.0566
2023-05-05T12:07:29.370Z,23.2398
2023-05-05T12:08:29.402Z,23.3137
2023-05-05T12:09:29.503Z,23.4073
2023-05-05T12:10:30.642Z,23.5503
2023-05-05T12:11:31.966Z,23.5365
2023-05-05T12:12:32.337Z,23.9346
2023-05-05T12:13:33.246Z,24.0296
2023-05-05T12:14:34.464Z,24.0986
2023-05-05T12:15:34.676Z,24.2428
2023-05-05T12:16:34.882Z,24.2336
2023-05-05T12:17:35.533Z,24.3464
2023-05-05T12:18:36.222Z,24.3594
2023-05-05T12:19:36.337Z,24.4724
2023-05-05T12:20:37.680Z,24.2562
2023-05-05T12:21:37.860Z,24.2545
2023-05-05T12:22:38.058Z,24.4426
2023-05-05T12:23:38.616Z,24.2828
2023-05-05T12:24:38.630Z,24.2845
2023-05-05T12:25:38.864Z,24.2295
2023-05-05T12:26:38.876Z,24.1990
2023-05-05T12:27:39.285Z,24.5000
2023-05-05T12:28:39.356Z,24.8182
2023-05-05T12:29:39.623Z,24.8327
2023-05-05T12:30:40.655Z,24.7761
2023-05-05T12:31:41.095Z,24.9421
2023-05-05T12:32:41.716Z,24.8800
2023-05-05T12:33:41.942Z,25.0197
2023-05-05T12:34:42.107Z,25.3013
2023-05-05T12:35:42.100Z,24.9712
2023-05-05T12:36:42.685Z,25.4477
2023-05-05T12:37:43.914Z,25.5868
2023-05-05T12:38:44.154Z,25.5940
2023-05-05T12:39:45.634Z,25.6833
2023-05-05T12:40:46.407Z,25.2946
2023-05-05T12:41:46.537Z,25.1317
2023-05-05T12:42:46.627Z,25.1906
2023-05-05T12:43:46.822Z,25.2758
2023-05-05T12:44:46.800Z,25.2569
2023-05-05T12:45:47.135Z,25.3287
2023-05-05T12:46:47.617Z,25.5637
2023-05-05T12:47:48.059Z,25.5757
2023-05-05T12:48:48.601Z,25.8950
2023-05-05T12:49:48.941Z,25.9478
2023-05-05T12:50:50.450Z,26.2049
2023-05-05T12:51:50.516Z,26.3469
2023-05-05T12:52:50.724Z,26.2087
2023-05-05T12:53:51.753Z,25.9497
2023-05-05T12:54:52.953Z,26.0977
2023-05-05T12:55:53.277Z,26.2350
2023-05-05T12:56:53.482Z,26.1777
2023-05-05T12:57:53.666Z,26.2734
2023-05-05T12:58:53.864Z,26.0706
2023-05-05T12:59:55.174Z,25.9225
2023-05-05T13:00:55.739Z,25.8403
2023-05-05T13:01:56.202Z,25.7319